sensor_id;sensor_type;location;lat;lon;timestamp;P1;durP1;ratioP1;P2;durP2;ratioP2
72645;SDS011;60687;53.876;10.674;2023-04-15T00:04:21;10.43;;;4.40;;
72645;SDS011;60687;53.876;10.674;2023-04-15T00:14:24;10.80;;;4.63;;
72645;SDS011;60687;53.876;10.674;2023-04-15T00:24:28;11.25;;;5.40;;
72645;SDS011;60687;53.876;10.674;2023-04-15T00:34:30;11.60;;;5.50;;
72645;SDS011;60687;53.876;10.674;2023-04-15T00:44:34;13.03;;;6.17;;
72645;SDS011;60687;53.876;10.674;2023-04-15T00:54:37;12.80;;;5.93;;
72645;SDS011;60687;53.876;10.674;2023-04-15T01:04:41;14.95;;;6.30;;
72645;SDS011;60687;53.876;10.674;2023-04-15T01:14:43;17.03;;;7.07;;
72645;SDS011;60687;53.876;10.674;2023-04-15T01:24:48;19.10;;;6.73;;
72645;SDS011;60687;53.876;10.674;2023-04-15T01:34:57;19.15;;;6.88;;
72645;SDS011;60687;53.876;10.674;2023-04-15T01:45:19;27.80;;;12.53;;
72645;SDS011;60687;53.876;10.674;2023-04-15T01:55:24;32.37;;;13.30;;
72645;SDS011;60687;53.876;10.674;2023-04-15T02:05:27;38.15;;;15.55;;
72645;SDS011;60687;53.876;10.674;2023-04-15T02:15:32;31.60;;;13.95;;
72645;SDS011;60687;53.876;10.674;2023-04-15T02:25:36;36.03;;;14.40;;
72645;SDS011;60687;53.876;10.674;2023-04-15T02:35:42;33.03;;;13.83;;
72645;SDS011;60687;53.876;10.674;2023-04-15T02:45:46;34.72;;;14.90;;
72645;SDS011;60687;53.876;10.674;2023-04-15T02:55:54;35.00;;;14.43;;
72645;SDS011;60687;53.876;10.674;2023-04-15T03:06:01;27.07;;;12.70;;
72645;SDS011;60687;53.876;10.674;2023-04-15T03:16:06;35.90;;;14.88;;
72645;SDS011;60687;53.876;10.674;2023-04-15T03:26:11;35.43;;;14.37;;
72645;SDS011;60687;53.876;10.674;2023-04-15T03:36:29;36.83;;;15.50;;
72645;SDS011;60687;53.876;10.674;2023-04-15T03:46:33;34.55;;;14.10;;
72645;SDS011;60687;53.876;10.674;2023-04-15T03:56:38;35.28;;;14.77;;
72645;SDS011;60687;53.876;10.674;2023-04-15T04:06:42;45.10;;;18.93;;
72645;SDS011;60687;53.876;10.674;2023-04-15T04:16:47;38.53;;;18.03;;
72645;SDS011;60687;53.876;10.674;2023-04-15T04:26:51;42.65;;;18.52;;
72645;SDS011;60687;53.876;10.674;2023-04-15T04:36:56;37.40;;;19.30;;
72645;SDS011;60687;53.876;10.674;2023-04-15T04:47:00;45.33;;;19.27;;
72645;SDS011;60687;53.876;10.674;2023-04-15T04:57:04;42.22;;;20.05;;
72645;SDS011;60687;53.876;10.674;2023-04-15T05:07:09;52.57;;;23.67;;
72645;SDS011;60687;53.876;10.674;2023-04-15T05:17:14;39.33;;;18.50;;
72645;SDS011;60687;53.876;10.674;2023-04-15T05:27:18;45.53;;;20.92;;
72645;SDS011;60687;53.876;10.674;2023-04-15T05:37:26;44.70;;;20.13;;
72645;SDS011;60687;53.876;10.674;2023-04-15T05:47:29;40.27;;;19.00;;
72645;SDS011;60687;53.876;10.674;2023-04-15T05:57:34;60.60;;;25.33;;
72645;SDS011;60687;53.876;10.674;2023-04-15T06:07:38;37.97;;;17.85;;
72645;SDS011;60687;53.876;10.674;2023-04-15T06:17:43;46.60;;;21.43;;
72645;SDS011;60687;53.876;10.674;2023-04-15T06:27:47;54.60;;;24.00;;
72645;SDS011;60687;53.876;10.674;2023-04-15T06:37:53;46.25;;;20.45;;
72645;SDS011;60687;53.876;10.674;2023-04-15T06:47:57;47.33;;;19.20;;
72645;SDS011;60687;53.876;10.674;2023-04-15T06:58:02;36.43;;;16.20;;
72645;SDS011;60687;53.876;10.674;2023-04-15T07:08:06;41.38;;;19.45;;
72645;SDS011;60687;53.876;10.674;2023-04-15T07:18:11;35.78;;;16.67;;
72645;SDS011;60687;53.876;10.674;2023-04-15T07:28:15;48.23;;;21.73;;
72645;SDS011;60687;53.876;10.674;2023-04-15T07:38:20;34.80;;;16.63;;
72645;SDS011;60687;53.876;10.674;2023-04-15T07:48:25;37.50;;;16.58;;
72645;SDS011;60687;53.876;10.674;2023-04-15T07:58:30;36.13;;;15.73;;
72645;SDS011;60687;53.876;10.674;2023-04-15T08:08:33;38.63;;;16.77;;
72645;SDS011;60687;53.876;10.674;2023-04-15T08:18:38;28.90;;;14.48;;
72645;SDS011;60687;53.876;10.674;2023-04-15T08:28:42;38.27;;;16.30;;
72645;SDS011;60687;53.876;10.674;2023-04-15T08:38:48;27.60;;;13.17;;
72645;SDS011;60687;53.876;10.674;2023-04-15T08:48:52;29.35;;;15.02;;
72645;SDS011;60687;53.876;10.674;2023-04-15T08:59:00;27.70;;;13.63;;
72645;SDS011;60687;53.876;10.674;2023-04-15T09:09:05;29.70;;;14.07;;
72645;SDS011;60687;53.876;10.674;2023-04-15T09:19:21;27.00;;;14.93;;
72645;SDS011;60687;53.876;10.674;2023-04-15T09:29:25;29.95;;;14.32;;
72645;SDS011;60687;53.876;10.674;2023-04-15T09:49:54;25.80;;;14.80;;
72645;SDS011;60687;53.876;10.674;2023-04-15T10:00:00;25.85;;;14.75;;
72645;SDS011;60687;53.876;10.674;2023-04-15T10:10:09;20.63;;;13.43;;
72645;SDS011;60687;53.876;10.674;2023-04-15T10:20:16;23.33;;;14.80;;
72645;SDS011;60687;53.876;10.674;2023-04-15T10:30:21;23.10;;;14.52;;
72645;SDS011;60687;53.876;10.674;2023-04-15T10:40:28;23.80;;;15.00;;
72645;SDS011;60687;53.876;10.674;2023-04-15T10:50:33;26.47;;;15.67;;
72645;SDS011;60687;53.876;10.674;2023-04-15T11:00:41;25.87;;;16.57;;
72645;SDS011;60687;53.876;10.674;2023-04-15T11:10:53;27.08;;;16.42;;
72645;SDS011;60687;53.876;10.674;2023-04-15T11:20:59;30.17;;;17.57;;
72645;SDS011;60687;53.876;10.674;2023-04-15T11:31:08;26.50;;;16.10;;
72645;SDS011;60687;53.876;10.674;2023-04-15T11:41:14;28.65;;;18.38;;
72645;SDS011;60687;53.876;10.674;2023-04-15T11:51:22;33.87;;;20.93;;
72645;SDS011;60687;53.876;10.674;2023-04-15T12:01:33;25.13;;;16.10;;
72645;SDS011;60687;53.876;10.674;2023-04-15T12:11:49;28.17;;;16.98;;
72645;SDS011;60687;53.876;10.674;2023-04-15T12:22:20;28.48;;;17.90;;
72645;SDS011;60687;53.876;10.674;2023-04-15T12:33:01;34.17;;;21.73;;
72645;SDS011;60687;53.876;10.674;2023-04-15T12:43:06;30.10;;;18.07;;
72645;SDS011;60687;53.876;10.674;2023-04-15T12:53:09;31.55;;;19.38;;
72645;SDS011;60687;53.876;10.674;2023-04-15T13:03:14;28.67;;;18.07;;
72645;SDS011;60687;53.876;10.674;2023-04-15T13:13:17;27.23;;;17.57;;
72645;SDS011;60687;53.876;10.674;2023-04-15T13:23:21;27.38;;;17.25;;
72645;SDS011;60687;53.876;10.674;2023-04-15T13:33:27;28.80;;;16.23;;
72645;SDS011;60687;53.876;10.674;2023-04-15T13:43:51;26.27;;;15.77;;
72645;SDS011;60687;53.876;10.674;2023-04-15T13:54:06;27.00;;;17.60;;
72645;SDS011;60687;53.876;10.674;2023-04-15T14:04:14;22.58;;;14.60;;
72645;SDS011;60687;53.876;10.674;2023-04-15T14:14:22;29.33;;;18.10;;
72645;SDS011;60687;53.876;10.674;2023-04-15T14:24:46;29.70;;;17.53;;
72645;SDS011;60687;53.876;10.674;2023-04-15T14:34:50;26.60;;;15.50;;
72645;SDS011;60687;53.876;10.674;2023-04-15T14:45:05;24.97;;;16.23;;
72645;SDS011;60687;53.876;10.674;2023-04-15T14:55:22;28.70;;;17.00;;
72645;SDS011;60687;53.876;10.674;2023-04-15T15:05:26;24.67;;;16.17;;
72645;SDS011;60687;53.876;10.674;2023-04-15T15:15:34;28.23;;;16.37;;
72645;SDS011;60687;53.876;10.674;2023-04-15T15:25:42;28.67;;;17.50;;
72645;SDS011;60687;53.876;10.674;2023-04-15T15:35:44;27.95;;;16.73;;
72645;SDS011;60687;53.876;10.674;2023-04-15T15:45:49;25.45;;;15.55;;
72645;SDS011;60687;53.876;10.674;2023-04-15T15:55:55;22.43;;;13.23;;
72645;SDS011;60687;53.876;10.674;2023-04-15T16:05:59;23.10;;;14.67;;
72645;SDS011;60687;53.876;10.674;2023-04-15T16:16:02;23.52;;;13.10;;
72645;SDS011;60687;53.876;10.674;2023-04-15T16:26:08;24.03;;;13.47;;
72645;SDS011;60687;53.876;10.674;2023-04-15T16:36:10;18.63;;;10.60;;
72645;SDS011;60687;53.876;10.674;2023-04-15T16:46:17;21.63;;;13.05;;
72645;SDS011;60687;53.876;10.674;2023-04-15T16:56:20;23.27;;;13.33;;
72645;SDS011;60687;53.876;10.674;2023-04-15T17:06:25;18.23;;;10.80;;
72645;SDS011;60687;53.876;10.674;2023-04-15T17:16:27;22.92;;;11.68;;
72645;SDS011;60687;53.876;10.674;2023-04-15T17:26:32;24.98;;;13.15;;
72645;SDS011;60687;53.876;10.674;2023-04-15T17:36:36;24.57;;;13.50;;
72645;SDS011;60687;53.876;10.674;2023-04-15T17:47:02;26.43;;;14.17;;
72645;SDS011;60687;53.876;10.674;2023-04-15T17:57:24;28.83;;;15.68;;
72645;SDS011;60687;53.876;10.674;2023-04-15T18:07:48;30.53;;;16.90;;
72645;SDS011;60687;53.876;10.674;2023-04-15T18:18:11;25.63;;;13.07;;
72645;SDS011;60687;53.876;10.674;2023-04-15T18:28:15;23.45;;;11.50;;
72645;SDS011;60687;53.876;10.674;2023-04-15T18:38:18;18.30;;;10.13;;
72645;SDS011;60687;53.876;10.674;2023-04-15T18:48:22;21.63;;;11.77;;
72645;SDS011;60687;53.876;10.674;2023-04-15T18:58:25;27.92;;;13.23;;
72645;SDS011;60687;53.876;10.674;2023-04-15T19:08:29;19.85;;;11.18;;
72645;SDS011;60687;53.876;10.674;2023-04-15T19:18:36;20.57;;;11.40;;
72645;SDS011;60687;53.876;10.674;2023-04-15T19:28:40;23.67;;;13.40;;
72645;SDS011;60687;53.876;10.674;2023-04-15T19:38:47;27.48;;;13.85;;
72645;SDS011;60687;53.876;10.674;2023-04-15T19:48:50;32.50;;;16.47;;
72645;SDS011;60687;53.876;10.674;2023-04-15T19:58:55;22.27;;;12.93;;
72645;SDS011;60687;53.876;10.674;2023-04-15T20:09:00;29.38;;;13.15;;
72645;SDS011;60687;53.876;10.674;2023-04-15T20:19:08;24.33;;;12.50;;
72645;SDS011;60687;53.876;10.674;2023-04-15T20:29:12;22.20;;;12.10;;
72645;SDS011;60687;53.876;10.674;2023-04-15T20:39:15;29.00;;;14.95;;
72645;SDS011;60687;53.876;10.674;2023-04-15T20:49:27;28.23;;;15.38;;
72645;SDS011;60687;53.876;10.674;2023-04-15T20:59:34;22.73;;;12.70;;
72645;SDS011;60687;53.876;10.674;2023-04-15T21:09:38;25.07;;;13.43;;
72645;SDS011;60687;53.876;10.674;2023-04-15T21:19:42;21.17;;;11.90;;
72645;SDS011;60687;53.876;10.674;2023-04-15T21:29:53;27.23;;;16.03;;
72645;SDS011;60687;53.876;10.674;2023-04-15T21:39:55;23.43;;;12.37;;
72645;SDS011;60687;53.876;10.674;2023-04-15T21:50:02;26.98;;;14.63;;
72645;SDS011;60687;53.876;10.674;2023-04-15T22:00:07;30.00;;;15.37;;
72645;SDS011;60687;53.876;10.674;2023-04-15T22:10:12;23.50;;;13.53;;
72645;SDS011;60687;53.876;10.674;2023-04-15T22:20:16;26.05;;;14.65;;
72645;SDS011;60687;53.876;10.674;2023-04-15T22:30:20;26.67;;;14.80;;
72645;SDS011;60687;53.876;10.674;2023-04-15T22:40:25;20.30;;;11.33;;
72645;SDS011;60687;53.876;10.674;2023-04-15T22:51:24;24.40;;;12.87;;
72645;SDS011;60687;53.876;10.674;2023-04-15T23:01:27;25.00;;;13.77;;
72645;SDS011;60687;53.876;10.674;2023-04-15T23:11:33;22.03;;;11.70;;
72645;SDS011;60687;53.876;10.674;2023-04-15T23:21:38;21.97;;;10.57;;
72645;SDS011;60687;53.876;10.674;2023-04-15T23:31:42;24.27;;;12.90;;
72645;SDS011;60687;53.876;10.674;2023-04-15T23:41:44;18.57;;;10.17;;
72645;SDS011;60687;53.876;10.674;2023-04-15T23:51:53;21.93;;;12.43;;
